createdAt,value
2017-04-18T00:00:22.649Z,0
2017-04-18T00:01:22.602Z,0
2017-04-18T00:02:22.585Z,0
2017-04-18T00:03:22.557Z,0
2017-04-18T00:04:22.786Z,0
2017-04-18T00:05:22.555Z,0
2017-04-18T00:06:22.483Z,0
2017-04-18T00:07:22.461Z,0
2017-04-18T00:08:22.485Z,0
2017-04-18T00:09:22.404Z,0
2017-04-18T00:10:22.380Z,0
2017-04-18T00:11:22.352Z,0
2017-04-18T00:12:22.326Z,0
2017-04-18T00:13:22.300Z,0
2017-04-18T00:14:22.276Z,0
2017-04-18T00:15:22.243Z,0
2017-04-18T00:16:22.228Z,0
2017-04-18T00:17:22.372Z,0
2017-04-18T00:18:22.173Z,0
2017-04-18T00:19:22.146Z,0
2017-04-18T00:20:22.120Z,0
2017-04-18T00:21:22.089Z,0
2017-04-18T00:22:22.066Z,0
2017-04-18T00:23:22.089Z,0
2017-04-18T00:24:22.011Z,0
2017-04-18T00:25:21.993Z,0
2017-04-18T00:26:21.953Z,0
2017-04-18T00:27:21.935Z,0
2017-04-18T00:28:21.911Z,0
2017-04-18T00:29:21.886Z,0
2017-04-18T00:30:21.849Z,0
2017-04-18T00:31:21.821Z,0
2017-04-18T00:32:21.803Z,0
2017-04-18T00:33:21.772Z,0
2017-04-18T00:34:21.752Z,0
2017-04-18T00:35:21.726Z,0
2017-04-18T00:36:21.405Z,0
2017-04-18T00:37:21.667Z,0
2017-04-18T00:38:21.665Z,0
2017-04-18T00:39:21.622Z,0
2017-04-18T00:40:21.605Z,0
2017-04-18T00:41:21.578Z,0
2017-04-18T00:42:21.550Z,0
2017-04-18T00:43:21.513Z,0
2017-04-18T00:44:21.485Z,0
2017-04-18T00:45:21.459Z,0
2017-04-18T00:46:21.135Z,0
2017-04-18T00:47:21.416Z,0
2017-04-18T00:48:21.389Z,0
2017-04-18T00:49:21.358Z,0
2017-04-18T00:50:21.330Z,0
2017-04-18T00:51:21.309Z,0
2017-04-18T00:52:21.488Z,0
2017-04-18T00:53:21.008Z,0
2017-04-18T00:54:21.229Z,0
2017-04-18T00:55:21.208Z,0
2017-04-18T00:56:20.877Z,0
2017-04-18T00:57:21.144Z,0
2017-04-18T00:58:21.128Z,0
2017-04-18T00:59:21.100Z,0
2017-04-18T01:00:20.783Z,0
2017-04-18T01:01:20.743Z,0
2017-04-18T01:02:21.018Z,0
2017-04-18T01:03:21.005Z,0
2017-04-18T01:04:20.973Z,0
2017-04-18T01:05:20.948Z,0
2017-04-18T01:06:20.920Z,0
2017-04-18T01:07:20.898Z,0
2017-04-18T01:08:20.916Z,0
2017-04-18T01:09:21.016Z,0
2017-04-18T01:10:20.518Z,0
2017-04-18T01:11:20.793Z,0
2017-04-18T01:12:20.777Z,0
2017-04-18T01:13:20.743Z,0
2017-04-18T01:14:20.713Z,0
2017-04-18T01:15:20.697Z,0
2017-04-18T01:16:20.657Z,0
2017-04-18T01:17:20.639Z,0
2017-04-18T01:18:20.610Z,0
2017-04-18T01:19:20.582Z,0
2017-04-18T01:20:20.258Z,0
2017-04-18T01:21:20.532Z,0
2017-04-18T01:22:20.501Z,0
2017-04-18T01:23:20.487Z,0
2017-04-18T01:24:20.456Z,0
2017-04-18T01:25:20.838Z,0
2017-04-18T01:26:20.408Z,0
2017-04-18T01:27:20.427Z,0
2017-04-18T01:28:20.346Z,0
2017-04-18T01:29:20.323Z,0
2017-04-18T01:30:20.388Z,0
2017-04-18T01:31:20.486Z,0
2017-04-18T01:32:20.265Z,0
2017-04-18T01:33:21.528Z,0
2017-04-18T01:34:20.195Z,0
2017-04-18T01:35:34.767Z,0
2017-04-18T01:36:20.144Z,0
2017-04-18T01:37:20.131Z,0
2017-04-18T01:38:20.097Z,0
2017-04-18T01:39:20.069Z,0
2017-04-18T01:40:20.038Z,0
2017-04-18T01:41:20.017Z,0
2017-04-18T01:42:20.089Z,0
2017-04-18T01:43:19.962Z,0
2017-04-18T01:44:19.934Z,0
2017-04-18T01:45:19.911Z,0
2017-04-18T01:46:19.888Z,0
2017-04-18T01:47:19.903Z,0
2017-04-18T01:48:20.128Z,0
2017-04-18T01:49:19.803Z,0
2017-04-18T01:50:19.767Z,0
2017-04-18T01:51:19.746Z,0
2017-04-18T01:52:21.121Z,0
2017-04-18T01:53:19.701Z,0
2017-04-18T01:54:19.729Z,0
2017-04-18T01:55:19.662Z,0
2017-04-18T01:56:19.617Z,0
2017-04-18T01:57:19.293Z,0
2017-04-18T01:58:19.609Z,0
2017-04-18T01:59:19.543Z,0
2017-04-18T02:00:19.527Z,0
2017-04-18T02:01:19.489Z,0
2017-04-18T02:02:19.468Z,0
2017-04-18T02:03:19.443Z,0
2017-04-18T02:04:19.412Z,0
2017-04-18T02:05:19.431Z,0
2017-04-18T02:06:19.350Z,0
2017-04-18T02:07:19.323Z,0
2017-04-18T02:08:19.318Z,0
2017-04-18T02:09:19.292Z,0
2017-04-18T02:10:19.249Z,0
2017-04-18T02:11:19.279Z,0
2017-04-18T02:12:19.202Z,0
2017-04-18T02:14:20.346Z,0
2017-04-18T02:15:19.125Z,0
2017-04-18T02:16:19.126Z,0
2017-04-18T02:17:18.816Z,0
2017-04-18T02:18:19.041Z,0
2017-04-18T02:19:19.010Z,0
2017-04-18T02:20:18.982Z,0
2017-04-18T02:21:18.964Z,0
2017-04-18T02:22:18.928Z,0
2017-04-18T02:23:19.019Z,0
2017-04-18T02:24:18.875Z,0
2017-04-18T02:25:18.848Z,0
2017-04-18T02:26:19.435Z,0
2017-04-18T02:27:18.802Z,0
2017-04-18T02:28:18.780Z,0
2017-04-18T02:29:18.816Z,0
2017-04-18T02:30:18.425Z,0
2017-04-18T02:31:18.693Z,0
2017-04-18T02:32:18.371Z,0
2017-04-18T02:33:18.641Z,0
2017-04-18T02:34:18.629Z,0
2017-04-18T02:35:18.586Z,0
2017-04-18T02:36:18.263Z,0
2017-04-18T02:37:18.790Z,0
2017-04-18T02:38:18.223Z,0
2017-04-18T02:39:18.485Z,0
2017-04-18T02:40:18.462Z,0
2017-04-18T02:41:18.457Z,0
2017-04-18T02:42:18.418Z,0
2017-04-18T02:43:18.631Z,0
2017-04-18T02:44:18.363Z,0
2017-04-18T02:45:18.332Z,0
2017-04-18T02:46:18.300Z,0
2017-04-18T02:47:18.276Z,0
2017-04-18T02:48:18.107Z,0
2017-04-18T02:49:18.226Z,0
2017-04-18T02:50:18.194Z,0
2017-04-18T02:51:18.173Z,0
2017-04-18T02:52:18.153Z,0
2017-04-18T02:53:18.117Z,0
2017-04-18T02:54:18.091Z,0
2017-04-18T02:55:18.066Z,0
2017-04-18T02:56:18.046Z,0
2017-04-18T02:57:18.007Z,0
2017-04-18T02:58:17.981Z,0
2017-04-18T02:59:17.963Z,0
2017-04-18T03:00:18.032Z,0
2017-04-18T03:01:17.908Z,0
2017-04-18T03:02:17.874Z,0
2017-04-18T03:03:17.844Z,0
2017-04-18T03:04:17.835Z,0
2017-04-18T03:05:17.796Z,0
2017-04-18T03:06:17.768Z,0
2017-04-18T03:07:17.743Z,0
2017-04-18T03:08:17.718Z,0
2017-04-18T03:09:17.699Z,0
2017-04-18T03:10:17.670Z,0
2017-04-18T03:11:17.649Z,0
2017-04-18T03:12:18.116Z,0
2017-04-18T03:13:17.590Z,0
2017-04-18T03:14:17.560Z,0
2017-04-18T03:15:17.238Z,0
2017-04-18T03:16:17.509Z,0
2017-04-18T03:17:17.723Z,0
2017-04-18T03:18:17.504Z,0
2017-04-18T03:19:17.431Z,0
2017-04-18T03:20:17.411Z,0
2017-04-18T03:21:17.380Z,0
2017-04-18T03:22:17.352Z,0
2017-04-18T03:23:17.376Z,0
2017-04-18T03:24:17.301Z,0
2017-04-18T03:25:17.322Z,0
2017-04-18T03:26:17.252Z,0
2017-04-18T03:27:17.270Z,0
2017-04-18T03:28:17.244Z,0
2017-04-18T03:29:17.178Z,0
2017-04-18T03:30:17.393Z,0
2017-04-18T03:31:17.107Z,0
2017-04-18T03:32:17.087Z,0
2017-04-18T03:33:17.062Z,0
2017-04-18T03:34:16.835Z,0
2017-04-18T03:35:17.001Z,0
2017-04-18T03:36:16.975Z,0
2017-04-18T03:37:17.043Z,0
2017-04-18T03:38:16.926Z,0
2017-04-18T03:39:16.899Z,0
2017-04-18T03:40:16.878Z,0
2017-04-18T03:41:16.847Z,0
2017-04-18T03:42:16.812Z,0
2017-04-18T03:43:16.798Z,0
2017-04-18T03:44:16.473Z,0
2017-04-18T03:45:16.737Z,0
2017-04-18T03:46:16.714Z,0
2017-04-18T03:47:16.686Z,0
2017-04-18T03:48:16.663Z,0
2017-04-18T03:49:16.642Z,4
2017-04-18T03:50:16.610Z,4
2017-04-18T03:51:16.582Z,0
2017-04-18T03:52:16.548Z,4
2017-04-18T03:53:16.537Z,4
2017-04-18T03:54:16.505Z,4
2017-04-18T03:55:16.479Z,4
2017-04-18T03:56:16.467Z,4
2017-04-18T03:57:16.170Z,8
2017-04-18T03:58:16.394Z,8
2017-04-18T03:59:16.373Z,8
2017-04-18T04:00:17.683Z,8
2017-04-18T04:01:16.310Z,8
2017-04-18T04:02:16.294Z,12
2017-04-18T04:03:16.257Z,16
2017-04-18T04:04:16.242Z,16
2017-04-18T04:05:16.212Z,16
2017-04-18T04:06:16.179Z,20
2017-04-18T04:07:16.148Z,24
2017-04-18T04:08:16.075Z,28
2017-04-18T04:09:16.100Z,36
2017-04-18T04:10:16.067Z,40
2017-04-18T04:11:16.039Z,44
2017-04-18T04:12:16.065Z,48
2017-04-18T04:13:15.697Z,60
2017-04-18T04:14:15.975Z,68
2017-04-18T04:15:15.943Z,76
2017-04-18T04:16:15.907Z,84
2017-04-18T04:17:15.892Z,96
2017-04-18T04:18:15.560Z,108
2017-04-18T04:19:15.529Z,124
2017-04-18T04:20:15.804Z,136
2017-04-18T04:21:15.769Z,152
2017-04-18T04:22:15.750Z,168
2017-04-18T04:23:15.419Z,188
2017-04-18T04:24:15.702Z,204
2017-04-18T04:25:15.371Z,220
2017-04-18T04:26:15.638Z,248
2017-04-18T04:27:15.620Z,264
2017-04-18T04:28:15.653Z,292
2017-04-18T04:29:15.771Z,320
2017-04-18T04:30:15.539Z,344
2017-04-18T04:31:15.553Z,372
2017-04-18T04:32:15.480Z,404
2017-04-18T04:33:15.458Z,432
2017-04-18T04:34:15.423Z,468
2017-04-18T04:35:15.404Z,500
2017-04-18T04:36:15.430Z,536
2017-04-18T04:37:15.392Z,568
2017-04-18T04:38:15.329Z,608
2017-04-18T04:39:15.300Z,652
2017-04-18T04:40:15.260Z,688
2017-04-18T04:41:14.937Z,724
2017-04-18T04:42:15.210Z,752
2017-04-18T04:43:15.191Z,784
2017-04-18T04:44:15.214Z,824
2017-04-18T04:45:15.131Z,864
2017-04-18T04:46:15.158Z,892
2017-04-18T04:47:15.214Z,932
2017-04-18T04:48:15.058Z,980
2017-04-18T04:49:15.028Z,1040
2017-04-18T04:50:14.995Z,1116
2017-04-18T04:51:14.665Z,1188
2017-04-18T04:52:14.952Z,1228
2017-04-18T04:53:14.910Z,1244
2017-04-18T04:54:14.886Z,1268
2017-04-18T04:55:14.868Z,1312
2017-04-18T04:56:14.837Z,1368
2017-04-18T04:57:14.824Z,1740
2017-04-18T04:58:14.782Z,1756
2017-04-18T04:59:14.753Z,1600
2017-04-18T05:00:14.729Z,1568
2017-04-18T05:01:14.707Z,1612
2017-04-18T05:02:14.372Z,1648
2017-04-18T05:03:14.354Z,1640
2017-04-18T05:04:14.623Z,1652
2017-04-18T05:05:14.602Z,1660
2017-04-18T05:07:15.769Z,1716
2017-04-18T05:08:14.512Z,1756
2017-04-18T05:09:14.490Z,1788
2017-04-18T05:10:15.064Z,1836
2017-04-18T05:11:14.438Z,1912
2017-04-18T05:12:14.409Z,2004
2017-04-18T05:13:14.940Z,2136
2017-04-18T05:14:14.055Z,2264
2017-04-18T05:15:14.382Z,2656
2017-04-18T05:16:14.351Z,2460
2017-04-18T05:17:14.275Z,2488
2017-04-18T05:18:14.249Z,2488
2017-04-18T05:19:14.279Z,2408
2017-04-18T05:20:14.218Z,2352
2017-04-18T05:21:14.222Z,2340
2017-04-18T05:22:14.191Z,2356
2017-04-18T05:23:14.131Z,2372
2017-04-18T05:24:14.102Z,2400
2017-04-18T05:25:14.066Z,2444
2017-04-18T05:26:13.783Z,2484
2017-04-18T05:27:14.011Z,2504
2017-04-18T05:28:14.033Z,2632
2017-04-18T05:29:13.960Z,2484
2017-04-18T05:30:13.930Z,2120
2017-04-18T05:31:13.909Z,1952
2017-04-18T05:32:13.583Z,1788
2017-04-18T05:33:13.860Z,1936
2017-04-18T05:34:14.122Z,2016
2017-04-18T05:35:13.793Z,1972
2017-04-18T05:36:13.778Z,2144
2017-04-18T05:37:13.755Z,2316
2017-04-18T05:38:13.727Z,2636
2017-04-18T05:39:13.397Z,2996
2017-04-18T05:40:13.671Z,3664
2017-04-18T05:41:13.646Z,4156
2017-04-18T05:42:13.616Z,4120
2017-04-18T05:43:13.594Z,3504
2017-04-18T05:44:13.566Z,3140
2017-04-18T05:45:13.234Z,2964
2017-04-18T05:46:13.516Z,2788
2017-04-18T05:47:13.489Z,2712
2017-04-18T05:48:13.463Z,2880
2017-04-18T05:49:13.438Z,3188
2017-04-18T05:50:13.407Z,3532
2017-04-18T05:51:13.373Z,3932
2017-04-18T05:53:13.336Z,4088
2017-04-18T05:54:13.310Z,3776
2017-04-18T05:55:13.279Z,3676
2017-04-18T05:56:13.252Z,3688
2017-04-18T05:57:13.325Z,3860
2017-04-18T05:58:13.201Z,4288
2017-04-18T05:59:27.777Z,4980
2017-04-18T06:00:13.143Z,5380
2017-04-18T06:01:13.129Z,6556
2017-04-18T06:02:12.806Z,7964
2017-04-18T06:03:13.067Z,11408
2017-04-18T06:04:13.038Z,12572
2017-04-18T06:05:13.032Z,14816
2017-04-18T06:06:12.989Z,17440
2017-04-18T06:07:12.962Z,16960
2017-04-18T06:08:12.941Z,16768
2017-04-18T06:09:12.656Z,16256
2017-04-18T06:10:12.897Z,15360
2017-04-18T06:11:12.859Z,15104
2017-04-18T06:12:12.544Z,15200
2017-04-18T06:13:12.821Z,17216
2017-04-18T06:14:12.784Z,17216
2017-04-18T06:15:12.769Z,15776
2017-04-18T06:16:12.745Z,15424
2017-04-18T06:17:12.774Z,15232
2017-04-18T06:18:12.405Z,16224
2017-04-18T06:19:12.676Z,14528
2017-04-18T06:20:12.671Z,15456
2017-04-18T06:21:12.628Z,16736
2017-04-18T06:22:12.610Z,16000
2017-04-18T06:23:12.587Z,16544
2017-04-18T06:24:12.572Z,17152
2017-04-18T06:25:12.690Z,18368
2017-04-18T06:26:12.342Z,19232
2017-04-18T06:27:12.495Z,19552
2017-04-18T06:28:12.485Z,19968
2017-04-18T06:29:12.463Z,19712
2017-04-18T06:30:12.437Z,19232
2017-04-18T06:31:12.413Z,19104
2017-04-18T06:32:12.387Z,19296
2017-04-18T06:33:12.377Z,19520
2017-04-18T06:34:12.348Z,19872
2017-04-18T06:35:12.382Z,20320
2017-04-18T06:36:12.303Z,20704
2017-04-18T06:37:12.276Z,21024
2017-04-18T06:38:13.968Z,20960
2017-04-18T06:39:12.492Z,21280
2017-04-18T06:40:12.476Z,21760
2017-04-18T06:41:12.339Z,22912
2017-04-18T06:42:12.189Z,18304
2017-04-18T06:43:12.165Z,12668
2017-04-18T06:44:12.143Z,20320
2017-04-18T06:45:12.119Z,24384
2017-04-18T06:46:11.859Z,25120
2017-04-18T06:47:12.080Z,19232
2017-04-18T06:48:12.115Z,12356
2017-04-18T06:49:12.248Z,19808
2017-04-18T06:50:12.028Z,20480
2017-04-18T06:51:11.998Z,26496
2017-04-18T06:52:12.020Z,29664
2017-04-18T06:53:11.951Z,30240
2017-04-18T06:54:11.931Z,25504
2017-04-18T06:55:11.914Z,27424
2017-04-18T06:56:11.893Z,29280
2017-04-18T06:57:11.575Z,29312
2017-04-18T06:58:11.899Z,28160
2017-04-18T06:59:11.845Z,27072
2017-04-18T07:00:11.514Z,29952
2017-04-18T07:01:11.790Z,30912
2017-04-18T07:02:11.817Z,32896
2017-04-18T07:03:11.852Z,24608
2017-04-18T07:04:11.735Z,24640
2017-04-18T07:05:11.553Z,21568
2017-04-18T07:06:11.700Z,30400
2017-04-18T07:07:11.671Z,31008
2017-04-18T07:08:11.652Z,33024
2017-04-18T07:09:11.684Z,14856
2017-04-18T07:10:11.622Z,21120
2017-04-18T07:11:11.612Z,23072
2017-04-18T07:12:11.683Z,36384
2017-04-18T07:13:11.562Z,38400
2017-04-18T07:14:11.598Z,38560
2017-04-18T07:15:11.527Z,33216
2017-04-18T07:16:11.507Z,15744
2017-04-18T07:17:11.497Z,8736
2017-04-18T07:18:11.542Z,8772
2017-04-18T07:19:11.450Z,15412
2017-04-18T07:20:11.438Z,11232
2017-04-18T07:21:11.114Z,12404
2017-04-18T07:22:11.381Z,10736
2017-04-18T07:23:11.377Z,10656
2017-04-18T07:24:11.359Z,11816
2017-04-18T07:25:11.329Z,10956
2017-04-18T07:26:11.303Z,15252
2017-04-18T07:27:11.284Z,14312
2017-04-18T07:28:11.274Z,16960
2017-04-18T07:29:10.968Z,14892
2017-04-18T07:30:11.273Z,14156
2017-04-18T07:31:10.899Z,17792
2017-04-18T07:32:11.236Z,20192
2017-04-18T07:33:11.200Z,23200
2017-04-18T07:34:11.133Z,39232
2017-04-18T07:35:10.805Z,17312
2017-04-18T07:36:11.150Z,42144
2017-04-18T07:37:11.084Z,35680
2017-04-18T07:38:10.811Z,43040
2017-04-18T07:39:11.047Z,13416
2017-04-18T07:40:11.014Z,13368
2017-04-18T07:41:10.689Z,14040
2017-04-18T07:42:10.668Z,14148
2017-04-18T07:43:10.965Z,13436
2017-04-18T07:44:10.634Z,12852
2017-04-18T07:45:10.906Z,12836
2017-04-18T07:46:11.106Z,13276
2017-04-18T07:47:10.869Z,13724
2017-04-18T07:48:25.455Z,14508
2017-04-18T07:49:10.821Z,15168
2017-04-18T07:50:10.499Z,15688
2017-04-18T07:51:10.789Z,15840
2017-04-18T07:52:10.457Z,15896
2017-04-18T07:53:10.770Z,15616
2017-04-18T07:54:10.730Z,14800
2017-04-18T07:55:10.911Z,15148
2017-04-18T07:56:10.672Z,14732
2017-04-18T07:57:10.656Z,14616
2017-04-18T07:58:10.627Z,14516
2017-04-18T07:59:10.612Z,14620
2017-04-18T08:00:10.281Z,14548
2017-04-18T08:01:10.597Z,14204
2017-04-18T08:02:10.538Z,14008
2017-04-18T08:03:10.615Z,14436
2017-04-18T08:04:10.501Z,15776
2017-04-18T08:05:10.184Z,18112
2017-04-18T08:06:10.453Z,19968
2017-04-18T08:07:10.439Z,20896
2017-04-18T08:08:10.454Z,20992
2017-04-18T08:09:10.385Z,20160
2017-04-18T08:10:10.392Z,19200
2017-04-18T08:11:10.343Z,16704
2017-04-18T08:12:10.319Z,13728
2017-04-18T08:13:10.455Z,11460
2017-04-18T08:14:10.270Z,10044
2017-04-18T08:15:10.291Z,9004
2017-04-18T08:16:09.936Z,8664
2017-04-18T08:17:10.209Z,9140
2017-04-18T08:18:10.235Z,9568
2017-04-18T08:19:10.165Z,9464
2017-04-18T08:20:10.148Z,9312
2017-04-18T08:21:10.165Z,8140
2017-04-18T08:22:10.398Z,7856
2017-04-18T08:23:10.067Z,9476
2017-04-18T08:24:10.043Z,11360
2017-04-18T08:25:10.028Z,10644
2017-04-18T08:26:10.013Z,7756
2017-04-18T08:27:09.980Z,7260
2017-04-18T08:28:10.011Z,10124
2017-04-18T08:29:09.964Z,13096
2017-04-18T08:30:09.739Z,10940
2017-04-18T08:31:09.898Z,9756
2017-04-18T08:32:09.874Z,10784
2017-04-18T08:33:09.845Z,13044
2017-04-18T08:34:09.824Z,15164
2017-04-18T08:35:09.844Z,14924
2017-04-18T08:36:09.782Z,13708
2017-04-18T08:37:09.767Z,12796
2017-04-18T08:38:09.779Z,11576
2017-04-18T08:39:09.707Z,10064
2017-04-18T08:40:09.681Z,9120
2017-04-18T08:41:09.664Z,9052
2017-04-18T08:42:09.746Z,9896
2017-04-18T08:43:09.618Z,9656
2017-04-18T08:44:09.595Z,8688
2017-04-18T08:45:09.579Z,7944
2017-04-18T08:46:09.552Z,7932
2017-04-18T08:47:09.535Z,8388
2017-04-18T08:48:09.515Z,8528
2017-04-18T08:49:09.486Z,8840
2017-04-18T08:50:09.464Z,9152
2017-04-18T08:51:09.433Z,9008
2017-04-18T08:52:09.485Z,8864
2017-04-18T08:53:09.383Z,8576
2017-04-18T08:54:09.656Z,7904
2017-04-18T08:55:09.336Z,6408
2017-04-18T08:56:09.066Z,6804
2017-04-18T08:57:09.291Z,8884
2017-04-18T08:58:09.265Z,8544
2017-04-18T08:59:09.245Z,6928
2017-04-18T09:00:09.221Z,6468
2017-04-18T09:01:10.154Z,6192
2017-04-18T09:02:09.184Z,6464
2017-04-18T09:03:23.518Z,5008
2017-04-18T09:04:09.142Z,4092
2017-04-18T09:05:09.100Z,3920
2017-04-18T09:06:09.089Z,3812
2017-04-18T09:07:09.069Z,2648
2017-04-18T09:08:09.084Z,2340
2017-04-18T09:09:09.021Z,2980
2017-04-18T09:10:08.995Z,3876
2017-04-18T09:11:08.961Z,4640
2017-04-18T09:12:08.641Z,5700
2017-04-18T09:13:08.932Z,6780
2017-04-18T09:14:09.105Z,7644
2017-04-18T09:15:08.862Z,7648
2017-04-18T09:16:08.896Z,7524
2017-04-18T09:17:08.825Z,7944
2017-04-18T09:18:09.704Z,9740
2017-04-18T09:19:09.001Z,12024
2017-04-18T09:20:08.766Z,14384
2017-04-18T09:21:08.723Z,15972
2017-04-18T09:22:11.312Z,19264
2017-04-18T09:23:08.685Z,21088
2017-04-18T09:24:08.657Z,21792
2017-04-18T09:25:08.927Z,33216
2017-04-18T09:26:08.618Z,81120
2017-04-18T09:27:08.585Z,36288
2017-04-18T09:28:08.568Z,32768
2017-04-18T09:29:08.586Z,19808
2017-04-18T09:30:08.506Z,22560
2017-04-18T09:31:08.500Z,33696
2017-04-18T09:32:08.727Z,49728
2017-04-18T09:33:07.850Z,34496
2017-04-18T09:34:08.435Z,25088
2017-04-18T09:35:08.623Z,84352
2017-04-18T09:36:08.385Z,80736
2017-04-18T09:37:08.359Z,24064
2017-04-18T09:38:08.331Z,18624
2017-04-18T09:39:08.332Z,17024
2017-04-18T09:40:08.303Z,18976
2017-04-18T09:41:08.270Z,19168
2017-04-18T09:42:08.063Z,18368
2017-04-18T09:43:08.257Z,14488
2017-04-18T09:44:07.898Z,12888
2017-04-18T09:45:08.184Z,13712
2017-04-18T09:46:07.858Z,21280
2017-04-18T09:47:08.137Z,20736
2017-04-18T09:48:09.613Z,76736
2017-04-18T09:49:08.102Z,34688
2017-04-18T09:50:07.771Z,78912
2017-04-18T09:51:07.758Z,81664
2017-04-18T09:52:08.035Z,59232
2017-04-18T09:54:07.989Z,78432
2017-04-18T09:55:07.974Z,52896
2017-04-18T09:56:07.644Z,24864
2017-04-18T09:57:07.928Z,13376
2017-04-18T09:58:07.905Z,16036
2017-04-18T09:59:07.932Z,18816
2017-04-18T10:00:07.855Z,24960
2017-04-18T10:01:07.830Z,26400
2017-04-18T10:02:07.560Z,25312
2017-04-18T10:03:07.806Z,26592
2017-04-18T10:04:07.782Z,80832
2017-04-18T10:05:07.758Z,16640
2017-04-18T10:06:07.742Z,13468
2017-04-18T10:07:07.725Z,14516
2017-04-18T10:08:07.698Z,18720
2017-04-18T10:09:07.727Z,18432
2017-04-18T10:10:07.656Z,18624
2017-04-18T10:11:07.645Z,18272
2017-04-18T10:12:07.622Z,16128
2017-04-18T10:13:07.599Z,14080
2017-04-18T10:14:07.575Z,39296
2017-04-18T10:15:07.557Z,11372
2017-04-18T10:16:07.529Z,9296
2017-04-18T10:17:08.118Z,9376
2017-04-18T10:18:07.499Z,37568
2017-04-18T10:19:07.465Z,58624
2017-04-18T10:20:07.445Z,10924
2017-04-18T10:21:07.430Z,58720
2017-04-18T10:22:07.409Z,64384
2017-04-18T10:23:07.589Z,62656
2017-04-18T10:24:07.366Z,63872
2017-04-18T10:25:07.347Z,62592
2017-04-18T10:26:07.315Z,61088
2017-04-18T10:27:06.414Z,21824
2017-04-18T10:28:07.289Z,43456
2017-04-18T10:29:07.270Z,12804
2017-04-18T10:30:07.302Z,10776
2017-04-18T10:31:07.226Z,10628
2017-04-18T10:32:07.211Z,12956
2017-04-18T10:33:07.237Z,17120
2017-04-18T10:34:07.205Z,22752
2017-04-18T10:35:07.152Z,21152
2017-04-18T10:36:07.129Z,17632
2017-04-18T10:37:06.800Z,13000
2017-04-18T10:38:07.084Z,12680
2017-04-18T10:39:07.059Z,12248
2017-04-18T10:40:07.032Z,10352
2017-04-18T10:41:06.714Z,11116
2017-04-18T10:42:06.698Z,13940
2017-04-18T10:43:07.060Z,16384
2017-04-18T10:44:07.002Z,20672
2017-04-18T10:45:06.928Z,25152
2017-04-18T10:46:06.908Z,25152
2017-04-18T10:47:06.881Z,20160
2017-04-18T10:48:06.859Z,17152
2017-04-18T10:49:08.793Z,13544
2017-04-18T10:50:07.980Z,10952
2017-04-18T10:51:06.795Z,6228
2017-04-18T10:52:06.789Z,4360
2017-04-18T10:53:21.059Z,5056
2017-04-18T10:54:07.135Z,6216
2017-04-18T10:55:06.712Z,8212
2017-04-18T10:56:06.689Z,10476
2017-04-18T10:57:06.678Z,12020
2017-04-18T10:58:06.654Z,13792
2017-04-18T10:59:06.621Z,15716
2017-04-18T11:00:06.859Z,18656
2017-04-18T11:01:06.592Z,21728
2017-04-18T11:02:06.567Z,23936
2017-04-18T11:03:06.547Z,24736
2017-04-18T11:04:06.541Z,24832
2017-04-18T11:05:06.492Z,23200
2017-04-18T11:06:06.473Z,22816
2017-04-18T11:07:06.438Z,20576
2017-04-18T11:08:06.423Z,17952
2017-04-18T11:09:06.489Z,16672
2017-04-18T11:10:06.377Z,14984
2017-04-18T11:11:06.352Z,13748
2017-04-18T11:12:06.390Z,12328
2017-04-18T11:13:06.357Z,10196
2017-04-18T11:14:06.315Z,8552
2017-04-18T11:15:06.279Z,8732
2017-04-18T11:16:06.306Z,9972
2017-04-18T11:17:06.448Z,10152
2017-04-18T11:18:06.264Z,9120
2017-04-18T11:19:05.887Z,7920
2017-04-18T11:20:06.158Z,7632
2017-04-18T11:21:06.128Z,6992
2017-04-18T11:22:06.165Z,6672
2017-04-18T11:23:06.085Z,6580
2017-04-18T11:24:06.065Z,5904
2017-04-18T11:25:05.759Z,4996
2017-04-18T11:26:06.021Z,4192
2017-04-18T11:27:06.001Z,4028
2017-04-18T11:28:05.973Z,4324
2017-04-18T11:29:05.958Z,4764
2017-04-18T11:30:05.969Z,5244
2017-04-18T11:31:05.908Z,5920
2017-04-18T11:32:05.905Z,6980
2017-04-18T11:33:05.866Z,8264
2017-04-18T11:34:06.014Z,8160
2017-04-18T11:35:05.807Z,7248
2017-04-18T11:36:05.784Z,6604
2017-04-18T11:37:05.767Z,6296
2017-04-18T11:38:05.745Z,6872
2017-04-18T11:39:05.713Z,7796
2017-04-18T11:40:05.694Z,8496
2017-04-18T11:41:05.719Z,9592
2017-04-18T11:42:05.644Z,11492
2017-04-18T11:43:05.025Z,13376
2017-04-18T11:44:05.353Z,15108
2017-04-18T11:45:05.586Z,17184
2017-04-18T11:46:06.013Z,20064
2017-04-18T11:47:05.539Z,21984
2017-04-18T11:48:05.502Z,22432
2017-04-18T11:49:05.478Z,21024
2017-04-18T11:50:05.452Z,20544
2017-04-18T11:51:05.130Z,20288
2017-04-18T11:52:05.414Z,19776
2017-04-18T11:53:05.396Z,19392
2017-04-18T11:54:05.359Z,18976
2017-04-18T11:55:05.360Z,19040
2017-04-18T11:56:05.376Z,18720
2017-04-18T11:57:05.297Z,18816
2017-04-18T11:58:05.272Z,19072
2017-04-18T11:59:05.295Z,19424
2017-04-18T12:00:05.215Z,19616
2017-04-18T12:01:05.194Z,19648
2017-04-18T12:02:05.218Z,20032
2017-04-18T12:03:05.193Z,20160
2017-04-18T12:04:05.142Z,20544
2017-04-18T12:05:05.102Z,20768
2017-04-18T12:06:04.550Z,19520
2017-04-18T12:07:05.063Z,18080
2017-04-18T12:08:05.041Z,17376
2017-04-18T12:09:05.179Z,17056
2017-04-18T12:10:04.836Z,16044
2017-04-18T12:11:06.821Z,14576
2017-04-18T12:12:04.957Z,13476
2017-04-18T12:13:04.917Z,12984
2017-04-18T12:14:04.907Z,12372
2017-04-18T12:15:04.876Z,11224
2017-04-18T12:16:04.856Z,10364
2017-04-18T12:17:04.835Z,9908
2017-04-18T12:18:04.809Z,8976
2017-04-18T12:19:04.781Z,8108
2017-04-18T12:20:04.811Z,6740
2017-04-18T12:21:04.742Z,5652
2017-04-18T12:22:04.717Z,5208
2017-04-18T12:23:04.693Z,4864
2017-04-18T12:24:04.671Z,4584
2017-04-18T12:25:04.356Z,4024
2017-04-18T12:26:04.626Z,3620
2017-04-18T12:27:04.596Z,3188
2017-04-18T12:28:04.582Z,3108
2017-04-18T12:29:04.258Z,3176
2017-04-18T12:30:04.531Z,3736
2017-04-18T12:31:04.503Z,4840
2017-04-18T12:32:04.479Z,5424
2017-04-18T12:33:04.456Z,6188
2017-04-18T12:34:04.426Z,6508
2017-04-18T12:35:04.408Z,6708
2017-04-18T12:36:04.473Z,6704
2017-04-18T12:37:04.362Z,5964
2017-04-18T12:38:04.338Z,5204
2017-04-18T12:39:04.311Z,5012
2017-04-18T12:40:04.283Z,5048
2017-04-18T12:41:03.965Z,4288
2017-04-18T12:42:04.275Z,3352
2017-04-18T12:43:04.209Z,2388
2017-04-18T12:44:04.187Z,1968
2017-04-18T12:45:04.404Z,1516
2017-04-18T12:46:04.147Z,1408
2017-04-18T12:47:04.168Z,1152
2017-04-18T12:48:04.094Z,1108
2017-04-18T12:49:04.064Z,1284
2017-04-18T12:50:04.055Z,1244
2017-04-18T12:51:05.169Z,1188
2017-04-18T12:52:04.038Z,1100
2017-04-18T12:53:03.968Z,1112
2017-04-18T12:54:03.941Z,1184
2017-04-18T12:55:03.912Z,1336
2017-04-18T12:56:03.937Z,1928
2017-04-18T12:57:03.559Z,2364
2017-04-18T12:58:03.834Z,2800
2017-04-18T12:59:03.827Z,3844
2017-04-18T13:00:03.786Z,5112
2017-04-18T13:01:03.478Z,6336
2017-04-18T13:02:03.727Z,7488
2017-04-18T13:03:03.704Z,8292
2017-04-18T13:04:03.911Z,8416
2017-04-18T13:05:03.362Z,8208
2017-04-18T13:06:03.643Z,7944
2017-04-18T13:07:03.309Z,7772
2017-04-18T13:08:03.877Z,8400
2017-04-18T13:09:03.556Z,8396
2017-04-18T13:10:03.532Z,8388
2017-04-18T13:11:03.519Z,8848
2017-04-18T13:12:03.626Z,8648
2017-04-18T13:13:03.447Z,8488
2017-04-18T13:14:03.426Z,7772
2017-04-18T13:15:03.400Z,6520
2017-04-18T13:16:03.376Z,5116
2017-04-18T13:17:03.366Z,4388
2017-04-18T13:18:03.329Z,4316
2017-04-18T13:19:03.549Z,4304
2017-04-18T13:20:03.290Z,4368
2017-04-18T13:21:03.467Z,4380
2017-04-18T13:22:03.065Z,4400
2017-04-18T13:23:03.200Z,4280
2017-04-18T13:24:03.184Z,4368
2017-04-18T13:25:04.656Z,4492
2017-04-18T13:26:03.146Z,4664
2017-04-18T13:27:03.166Z,5092
2017-04-18T13:28:03.237Z,5948
2017-04-18T13:29:03.120Z,7128
2017-04-18T13:30:03.038Z,8276
2017-04-18T13:31:02.849Z,8172
2017-04-18T13:32:02.986Z,8888
2017-04-18T13:33:02.711Z,9652
2017-04-18T13:34:02.987Z,9800
2017-04-18T13:35:02.928Z,10192
2017-04-18T13:36:02.898Z,10068
2017-04-18T13:37:02.873Z,9032
2017-04-18T13:38:02.843Z,7812
2017-04-18T13:39:02.818Z,9164